Pantelleria, Italia

05:57 AM CET del 22 Dicembre 2014 (GMT +0100)
Kelibia | Change Station
CLOSE
Current Station
Aeroporto
Location: Kelibia,
Altitudine: 98 ft
Stazioni meteo nelle vicinanze

Alt. 98 ft 36.85 °N, 11.08 °E | Updated 57 minutes ago

Clear
Sereno
57 °F
Sembra 57 °F
N
4
Vento Variabile Vento da ONO

Oggi
Massima -- | Minima -- °F
--% Possibilità di precip.
Ieri
Massima -- | Minima -- °F
Precip. -- in
7:21 AM 4:59 PM
Luna nuova, 0% visible
Pressione 30.42 in
Visibilità -9999.0 miglia
Nuvole
Punto di rugiada 52 °F
Umidità 82%
Piovosità 0.00 in
Spessore del manto nevoso Non disponibile.
Raggi UV Non disponibile.
Polline Non disponibile.
Qualità dell'aria Non disponibile.
Flu Activity Non disponibile.
METAR DTTL 220400Z AUTO 30003KT 220V010 NCD 14/11 Q1030

More Conditions Fewer Conditions

Pressione 30.42 in
Visibilità -9999.0 miglia
Nuvole
Punto di rugiada 52 °F
Umidità 82%
Piovosità 0.00 in
Spessore del manto nevoso Non disponibile.
Raggi UV Non disponibile.
Polline Non disponibile.
Qualità dell'aria Non disponibile.
Flu Activity Non disponibile.
METAR DTTL 220400Z AUTO 30003KT 220V010 NCD 14/11 Q1030

More Conditions Fewer Conditions

10-Day Weather Forecast

Almanac

Astronomia

Dec. 22, 2014 Alba Tramonto
Ora attuale
Crepuscolo civile
Crepuscolo nautico
Crepuscolo astronomico
Luna
Estensione della luce visibile
Lunghezza del giorno
Tomorrow will be .
, % of the Moon is Illuminated

Gli estremi di oggi

Massime Regione Minime Regione

Community

WunderPhotos

Upload Photos

1,779,540 foto caricate!

WunderBlogs® & News

Nearby

Qualità dell'aria

  Qualità dell'aria Indice AQ Inquinante
Not available.

Profondità neve

Stazione Profondità Altitudine

Attività sismica

Città  Distanza Mag. Data & Ora
Minimo Magnitudo Mostrato è 2.5.

Temperature delle acque costiere

Località Temperatura

Stazioni meteo nelle vicinanze